Time;durP1;ratioP1;P1;durP2;ratioP2;P2;SDS_P1;SDS_P2;PMS_P1;PMS_P2;Temp;Humidity;BMP_temperature;BMP_pressure;BME280_temperature;BME280_humidity;BME280_pressure;Samples;Min_cycle;Max_cycle;Signal;HPM_P1;HPM_P2
2022/05/17 00:02:21;;;;;;;;;;;;;;;16.53;67.72;93310.81;2055294;70;20119;-71
2022/05/17 00:04:47;;;;;;;;;;;;;;;16.42;69.46;93303.19;2055381;70;20055;-73
2022/05/17 00:07:13;;;;;;;;;;;;;;;16.33;69.94;93309.84;2055651;70;20042;-73
2022/05/17 00:09:38;;;;;;;;;;;;;;;16.07;72.46;93307.16;2055538;69;20062;-70
2022/05/17 00:12:04;;;;;;;;;;;;;;;16.22;71.02;93309.34;2055648;70;20058;-73
2022/05/17 00:14:30;;;;;;;;;;;;;;;16.12;72.56;93311.66;2055218;70;20050;-73
2022/05/17 00:16:56;;;;;;;;;;;;;;;16.33;70.01;93316.25;2055497;70;20532;-72
2022/05/17 00:19:21;;;;;;;;;;;;;;;16.32;70.72;93314.81;2055141;70;20486;-71
2022/05/17 00:21:47;;;;;;;;;;;;;;;16.27;70.79;93313.13;2055510;69;20137;-71
2022/05/17 00:24:14;;;;;;;;;;;;;;;16.31;69.53;93301.97;2055402;69;20057;-70
2022/05/17 00:26:40;;;;;;;;;;;;;;;16.16;71.41;93303.34;2068212;69;20196;-71
2022/05/17 00:29:06;;;;;;;;;;;;;;;16.24;71.49;93303.75;2055255;70;20184;-72
2022/05/17 00:31:33;;;;;;;;;;;;;;;16.19;71.75;93302.09;2055511;70;20045;-71
2022/05/17 00:33:59;;;;;;;;;;;;;;;16.11;72.18;93296.00;2055403;70;20097;-72
2022/05/17 00:36:24;;;;;;;;;;;;;;;16.21;70.31;93302.19;2055456;70;20090;-71
2022/05/17 00:38:50;;;;;;;;;;;;;;;16.21;70.56;93302.19;2055112;69;20058;-71
2022/05/17 00:41:16;;;;;;;;;;;;;;;16.32;69.64;93305.53;2055444;70;20096;-70
2022/05/17 00:46:30;;;;;;;;;;;;;;;16.05;72.73;93300.66;2055513;70;20078;-72
2022/05/17 00:48:56;;;;;;;;;;;;;;;16.06;72.16;93300.00;2068331;69;20668;-71
2022/05/17 00:51:25;;;;;;;;;;;;;;;16.12;71.25;93291.06;2068270;69;20109;-71
2022/05/17 00:53:51;;;;;;;;;;;;;;;16.11;72.74;93284.66;2055210;69;20051;-73
2022/05/17 00:56:19;;;;;;;;;;;;;;;16.04;72.97;93287.84;2055570;70;20073;-73
2022/05/17 00:58:49;;;;;;;;;;;;;;;16.08;71.92;93285.16;2055507;70;20054;-73
2022/05/17 01:01:23;;;;;;;;;;;;;;;16.04;72.69;93287.84;2055349;70;20078;-73
2022/05/17 01:04:03;;;;;;;;;;;;;;;16.03;72.80;93287.06;2068307;69;20050;-72
2022/05/17 01:06:39;;;;;;;;;;;;;;;16.13;71.03;93287.59;2055492;70;20042;-72
2022/05/17 01:09:05;;;;;;;;;;;;;;;16.14;71.60;93286.22;2055477;69;20458;-72
2022/05/17 01:11:31;;;;;;;;;;;;;;;16.07;71.58;93278.03;2055318;70;20413;-73
2022/05/17 01:16:41;;;;;;;;;;;;;;;15.97;71.70;93267.63;2055470;70;20046;-71
2022/05/17 01:19:08;;;;;;;;;;;;;;;16.21;70.50;93279.47;2055313;69;20062;-74
2022/05/17 01:21:34;;;;;;;;;;;;;;;16.17;71.30;93276.44;2068292;69;20050;-73
2022/05/17 01:23:59;;;;;;;;;;;;;;;15.89;73.25;93277.84;2055351;70;20049;-73
2022/05/17 01:26:25;;;;;;;;;;;;;;;15.80;72.37;93265.34;2055381;70;20493;-72
2022/05/17 01:28:51;;;;;;;;;;;;;;;16.06;69.01;93279.41;2055244;70;20486;-71
2022/05/17 01:31:18;;;;;;;;;;;;;;;16.01;70.46;93276.34;2055212;70;20180;-72
2022/05/17 01:33:43;;;;;;;;;;;;;;;16.16;68.17;93285.59;2055120;69;20151;-72
2022/05/17 01:36:10;;;;;;;;;;;;;;;16.06;70.18;93276.56;2055150;70;20109;-72
2022/05/17 01:38:36;;;;;;;;;;;;;;;15.80;72.15;93273.88;2055324;70;20470;-72
2022/05/17 01:41:01;;;;;;;;;;;;;;;15.94;70.21;93279.53;2055222;70;20053;-71
2022/05/17 01:46:54;;;;;;;;;;;;;;;15.82;72.43;93285.34;2055347;69;20111;-71
2022/05/17 01:49:20;;;;;;;;;;;;;;;15.79;71.89;93280.91;2055038;70;20066;-72
2022/05/17 01:51:45;;;;;;;;;;;;;;;15.86;71.45;93284.81;2055297;70;20073;-72
2022/05/17 01:54:11;;;;;;;;;;;;;;;15.90;71.79;93290.69;2055327;70;20134;-72
2022/05/17 01:56:36;;;;;;;;;;;;;;;15.86;72.31;93284.81;2055279;69;20478;-72
2022/05/17 01:59:02;;;;;;;;;;;;;;;15.84;71.29;93273.34;2055267;70;20478;-72
2022/05/17 02:01:28;;;;;;;;;;;;;;;15.89;72.41;93272.16;2055441;70;20081;-72
2022/05/17 02:03:56;;;;;;;;;;;;;;;15.95;70.87;93267.53;2055110;69;20072;-72
2022/05/17 02:06:23;;;;;;;;;;;;;;;15.83;72.08;93269.75;2055221;70;20061;-72
2022/05/17 02:08:48;;;;;;;;;;;;;;;15.87;71.59;93263.56;2055212;70;20055;-71
2022/05/17 02:11:14;;;;;;;;;;;;;;;15.73;73.09;93263.59;2055136;70;20054;-73
2022/05/17 02:13:41;;;;;;;;;;;;;;;15.73;73.27;93257.91;2068145;69;20086;-72
2022/05/17 02:16:10;;;;;;;;;;;;;;;15.62;71.53;93259.44;2068163;69;20110;-74
2022/05/17 02:18:35;;;;;;;;;;;;;;;15.73;70.09;93255.06;2059678;69;20081;-72
2022/05/17 02:21:01;;;;;;;;;;;;;;;15.79;70.75;93254.63;2048592;70;20058;-71
2022/05/17 02:23:27;;;;;;;;;;;;;;;15.77;71.79;93258.13;2048677;70;20083;-71
2022/05/17 02:25:53;;;;;;;;;;;;;;;15.70;71.42;93257.06;2048549;70;20065;-72
2022/05/17 02:28:18;;;;;;;;;;;;;;;15.63;72.15;93258.09;2048654;70;20047;-72
2022/05/17 02:30:45;;;;;;;;;;;;;;;15.58;73.24;93250.00;2048623;70;20062;-72
2022/05/17 02:33:12;;;;;;;;;;;;;;;15.68;72.02;93261.91;2048197;70;20150;-72
2022/05/17 02:35:38;;;;;;;;;;;;;;;15.72;70.30;93262.84;2048626;70;20057;-71
2022/05/17 02:38:03;;;;;;;;;;;;;;;15.72;70.94;93257.19;2048519;70;20631;-73
2022/05/17 02:40:29;;;;;;;;;;;;;;;15.68;72.14;93256.97;2047950;70;20434;-72
2022/05/17 02:42:54;;;;;;;;;;;;;;;15.65;71.15;93263.91;2048637;70;20484;-71
2022/05/17 02:45:20;;;;;;;;;;;;;;;15.52;73.56;93256.81;2048635;70;20058;-73
2022/05/17 02:47:45;;;;;;;;;;;;;;;15.58;71.45;93258.50;2048897;70;20179;-71
2022/05/17 02:50:11;;;;;;;;;;;;;;;15.69;70.56;93258.44;2049117;70;20125;-73
2022/05/17 02:56:05;;;;;;;;;;;;;;;15.55;71.19;93259.78;2049217;70;20142;-73
2022/05/17 02:58:31;;;;;;;;;;;;;;;15.66;71.68;93253.28;2049127;70;20059;-72
2022/05/17 03:00:56;;;;;;;;;;;;;;;15.36;72.93;93264.50;2049136;70;20189;-73
2022/05/17 03:03:22;;;;;;;;;;;;;;;15.59;71.31;93260.00;2049136;70;20505;-72
2022/05/17 03:05:47;;;;;;;;;;;;;;;15.55;71.69;93260.53;2048661;70;20490;-72
2022/05/17 03:08:13;;;;;;;;;;;;;;;15.39;73.19;93259.66;2049171;70;20443;-72
2022/05/17 03:10:39;;;;;;;;;;;;;;;15.38;73.35;93264.59;2049219;70;20056;-71
2022/05/17 03:13:05;;;;;;;;;;;;;;;15.41;72.73;93269.03;2048910;70;20067;-73
2022/05/17 03:18:59;;;;;;;;;;;;;;;15.30;72.58;93274.78;2052735;70;20057;-71
2022/05/17 03:21:25;;;;;;;;;;;;;;;15.38;72.28;93280.91;2055757;69;20058;-71
2022/05/17 03:23:51;;;;;;;;;;;;;;;15.40;72.45;93269.69;2055242;69;20574;-71
2022/05/17 03:29:45;;;;;;;;;;;;;;;15.47;69.18;93271.44;2055867;69;20048;-74
2022/05/17 03:32:11;;;;;;;;;;;;;;;15.50;70.16;93279.44;2055830;70;20082;-73
2022/05/17 03:34:37;;;;;;;;;;;;;;;15.32;71.47;93278.50;2055457;70;20081;-73
2022/05/17 03:37:03;;;;;;;;;;;;;;;15.37;71.29;93276.59;2055757;70;20104;-72
2022/05/17 03:39:28;;;;;;;;;;;;;;;15.18;71.97;93278.47;2068540;69;20421;-73
2022/05/17 03:41:54;;;;;;;;;;;;;;;15.17;72.26;93274.16;2055713;69;20053;-73
2022/05/17 03:44:19;;;;;;;;;;;;;;;15.14;71.83;93278.25;2055827;70;20046;-73
2022/05/17 03:46:45;;;;;;;;;;;;;;;15.08;73.40;93282.88;2055812;70;20058;-73
2022/05/17 03:49:10;;;;;;;;;;;;;;;15.08;73.44;93280.78;2055409;70;20050;-73
2022/05/17 03:51:36;;;;;;;;;;;;;;;15.18;72.25;93281.31;2055742;69;20066;-73
2022/05/17 03:54:02;;;;;;;;;;;;;;;14.99;71.79;93276.03;2055731;70;20491;-73
2022/05/17 03:56:27;;;;;;;;;;;;;;;15.12;71.88;93280.25;2055765;69;20470;-73
2022/05/17 03:58:52;;;;;;;;;;;;;;;15.22;70.80;93278.69;2055605;70;20520;-75
2022/05/17 04:01:18;;;;;;;;;;;;;;;15.18;71.08;93280.56;2055756;70;20417;-74
2022/05/17 04:03:43;;;;;;;;;;;;;;;15.12;71.46;93277.41;2055429;70;20061;-74
2022/05/17 04:06:09;;;;;;;;;;;;;;;15.09;72.11;93284.34;2055774;70;20057;-72
2022/05/17 04:08:36;;;;;;;;;;;;;;;15.01;73.23;93290.31;2055585;70;20049;-72
2022/05/17 04:11:02;;;;;;;;;;;;;;;15.15;71.32;93285.41;2055792;70;20157;-73
2022/05/17 04:13:29;;;;;;;;;;;;;;;14.89;74.04;93287.56;2055586;70;20093;-74
2022/05/17 04:15:56;;;;;;;;;;;;;;;15.02;73.10;93286.09;2055599;70;20437;-72
2022/05/17 04:18:21;;;;;;;;;;;;;;;14.99;73.41;93284.53;2055504;70;20438;-75
2022/05/17 04:20:47;;;;;;;;;;;;;;;15.15;71.77;93281.81;2055754;70;20053;-72
2022/05/17 04:23:12;;;;;;;;;;;;;;;15.18;70.88;93289.81;2055727;69;20057;-75
2022/05/17 04:25:38;;;;;;;;;;;;;;;15.16;72.09;93286.13;2055801;70;20136;-72
2022/05/17 04:28:03;;;;;;;;;;;;;;;14.94;71.99;93297.03;2055603;70;20051;-73
2022/05/17 04:30:29;;;;;;;;;;;;;;;15.00;73.43;93300.19;2068598;69;20422;-72
2022/05/17 04:32:55;;;;;;;;;;;;;;;15.06;73.74;93297.66;2068690;69;20124;-72
2022/05/17 04:35:20;;;;;;;;;;;;;;;15.14;72.37;93288.88;2055785;69;20055;-73
2022/05/17 04:37:46;;;;;;;;;;;;;;;15.21;71.47;93299.16;2055710;69;20076;-72
2022/05/17 04:40:13;;;;;;;;;;;;;;;15.23;72.86;93304.94;2068675;69;20148;-71
2022/05/17 04:42:39;;;;;;;;;;;;;;;15.49;70.13;93297.84;2055447;70;20142;-72
2022/05/17 04:45:06;;;;;;;;;;;;;;;15.44;71.14;93298.22;2055329;70;20047;-73
2022/05/17 04:47:31;;;;;;;;;;;;;;;15.39;71.45;93307.91;2068456;69;20069;-73
2022/05/17 04:49:57;;;;;;;;;;;;;;;15.01;73.25;93313.00;2055577;70;20477;-73
2022/05/17 04:52:23;;;;;;;;;;;;;;;15.25;72.53;93319.97;2055568;70;20054;-73
2022/05/17 04:54:50;;;;;;;;;;;;;;;15.29;73.39;93313.03;2055663;69;20051;-74
2022/05/17 04:57:15;;;;;;;;;;;;;;;15.26;73.85;93315.06;2055621;70;20050;-73
2022/05/17 04:59:41;;;;;;;;;;;;;;;15.33;73.58;93314.00;2055663;70;20047;-73
2022/05/17 05:02:06;;;;;;;;;;;;;;;15.38;73.10;93315.69;2055677;70;20077;-73
2022/05/17 05:04:32;;;;;;;;;;;;;;;15.44;73.75;93318.84;2068587;69;20054;-73
2022/05/17 05:06:57;;;;;;;;;;;;;;;15.58;72.69;93326.63;2055859;69;20046;-74
2022/05/17 05:09:24;;;;;;;;;;;;;;;15.68;72.12;93332.88;2055671;70;20142;-73
2022/05/17 05:11:49;;;;;;;;;;;;;;;15.67;72.59;93334.97;2068336;69;20142;-72
2022/05/17 05:14:15;;;;;;;;;;;;;;;15.77;71.79;93334.03;2055503;70;20474;-72
2022/05/17 05:16:40;;;;;;;;;;;;;;;15.08;75.04;93339.59;2068425;69;20165;-72
2022/05/17 05:19:05;;;;;;;;;;;;;;;15.35;74.36;93324.69;2055263;70;20074;-72
2022/05/17 05:21:31;;;;;;;;;;;;;;;15.58;72.92;93335.13;2055399;69;20093;-72
2022/05/17 05:23:56;;;;;;;;;;;;;;;15.65;72.35;93334.84;2055412;70;20062;-72
2022/05/17 05:26:22;;;;;;;;;;;;;;;15.73;71.82;93337.38;2055670;70;20050;-72
2022/05/17 05:28:48;;;;;;;;;;;;;;;15.67;72.64;93337.06;2068550;69;20540;-72
2022/05/17 05:31:15;;;;;;;;;;;;;;;15.83;71.77;93340.00;2055819;70;20414;-72
2022/05/17 05:33:41;;;;;;;;;;;;;;;15.47;73.37;93342.38;2055518;69;20058;-72
2022/05/17 05:36:07;;;;;;;;;;;;;;;15.47;73.71;93339.53;2055526;70;20113;-74
2022/05/17 05:38:33;;;;;;;;;;;;;;;15.66;73.44;93344.84;2055524;70;20553;-73
2022/05/17 05:40:58;;;;;;;;;;;;;;;15.91;71.71;93351.78;2055546;69;20046;-72
2022/05/17 05:43:25;;;;;;;;;;;;;;;15.95;71.94;93341.38;2055342;70;20482;-72
2022/05/17 05:45:50;;;;;;;;;;;;;;;16.05;72.74;93343.25;2068281;69;20398;-72
2022/05/17 05:48:16;;;;;;;;;;;;;;;16.06;72.26;93344.72;2055222;69;20518;-72
2022/05/17 05:50:42;;;;;;;;;;;;;;;16.16;71.98;93342.38;2055423;69;20470;-73
2022/05/17 05:53:09;;;;;;;;;;;;;;;16.18;71.31;93339.66;2055473;70;20505;-74
2022/05/17 05:55:35;;;;;;;;;;;;;;;16.18;71.11;93337.56;2055463;69;20081;-73
2022/05/17 05:58:02;;;;;;;;;;;;;;;15.97;68.24;93340.72;2055160;69;20062;-72
2022/05/17 06:03:56;;;;;;;;;;;;;;;15.82;71.40;93342.13;2055407;69;20521;-73
2022/05/17 06:06:21;;;;;;;;;;;;;;;15.61;71.54;93340.28;2068460;69;20094;-74
2022/05/17 06:08:47;;;;;;;;;;;;;;;15.85;73.03;93340.88;2055177;70;20051;-73
2022/05/17 06:11:14;;;;;;;;;;;;;;;15.98;71.54;93347.88;2055473;70;20050;-73
2022/05/17 06:13:39;;;;;;;;;;;;;;;15.99;72.57;93343.69;2068408;69;20065;-74
2022/05/17 06:16:04;;;;;;;;;;;;;;;15.96;73.20;93347.78;2055467;70;20047;-75
2022/05/17 06:18:30;;;;;;;;;;;;;;;15.91;73.68;93344.00;2055133;70;20111;-75
2022/05/17 06:20:59;;;;;;;;;;;;;;;16.02;72.58;93348.81;2068390;69;20057;-74
2022/05/17 06:23:26;;;;;;;;;;;;;;;16.16;71.90;93340.28;2055976;69;20176;-74
2022/05/17 06:25:52;;;;;;;;;;;;;;;16.19;72.21;93339.03;2066194;69;20065;-74
2022/05/17 06:28:19;;;;;;;;;;;;;;;16.27;70.83;93339.44;2055646;69;20046;-73
2022/05/17 06:30:44;;;;;;;;;;;;;;;16.19;72.07;93341.88;2068787;69;20493;-73
2022/05/17 06:33:10;;;;;;;;;;;;;;;16.22;72.74;93337.75;2055643;70;20046;-73
2022/05/17 06:35:41;;;;;;;;;;;;;;;16.22;72.99;93334.91;2055846;70;20483;-73
2022/05/17 06:38:07;;;;;;;;;;;;;;;16.30;72.72;93345.22;2055925;70;20524;-72
2022/05/17 06:40:33;;;;;;;;;;;;;;;16.41;70.52;93347.19;2055934;69;20053;-73
2022/05/17 06:42:59;;;;;;;;;;;;;;;16.55;69.76;93350.72;2055912;70;20058;-74
2022/05/17 06:45:25;;;;;;;;;;;;;;;16.42;72.09;93345.81;2055978;70;20050;-74
2022/05/17 06:47:50;;;;;;;;;;;;;;;16.40;72.27;93342.88;2055828;70;20059;-74
2022/05/17 06:50:16;;;;;;;;;;;;;;;16.40;72.67;93342.88;2056032;70;20099;-73
2022/05/17 06:52:41;;;;;;;;;;;;;;;16.38;72.33;93348.47;2055897;70;20058;-75
2022/05/17 06:55:07;;;;;;;;;;;;;;;16.44;71.46;93337.38;2068969;69;20160;-73
2022/05/17 06:57:34;;;;;;;;;;;;;;;16.40;71.81;93340.78;2055853;70;20066;-74
2022/05/17 07:03:28;;;;;;;;;;;;;;;16.72;71.02;93341.66;2055822;69;20584;-73
2022/05/17 07:05:54;;;;;;;;;;;;;;;16.51;71.38;93345.56;2055970;70;20046;-73
2022/05/17 07:08:19;;;;;;;;;;;;;;;16.85;70.30;93336.53;2055772;70;20046;-74
2022/05/17 07:13:28;;;;;;;;;;;;;;;16.89;70.26;93328.94;2055959;70;20062;-72
2022/05/17 07:15:56;;;;;;;;;;;;;;;16.74;69.49;93321.09;2068992;69;20046;-73
2022/05/17 07:18:23;;;;;;;;;;;;;;;16.92;68.22;93318.41;2055647;70;20050;-72
2022/05/17 07:20:49;;;;;;;;;;;;;;;17.11;67.10;93315.03;2068863;69;20051;-74
2022/05/17 07:23:16;;;;;;;;;;;;;;;17.27;68.33;93312.19;2055805;69;20057;-72
2022/05/17 07:25:44;;;;;;;;;;;;;;;17.38;68.90;93310.56;2055940;69;20054;-72
2022/05/17 07:28:13;;;;;;;;;;;;;;;17.39;70.25;93317.69;2055871;70;20054;-71
2022/05/17 07:30:39;;;;;;;;;;;;;;;17.53;69.19;93313.38;2068839;69;20058;-72
2022/05/17 07:33:04;;;;;;;;;;;;;;;17.41;67.96;93312.84;2055509;70;20061;-72
2022/05/17 07:35:30;;;;;;;;;;;;;;;17.34;67.84;93308.25;2068743;69;20054;-73
2022/05/17 07:37:56;;;;;;;;;;;;;;;17.51;66.47;93299.06;2055748;70;20054;-74
2022/05/17 07:40:21;;;;;;;;;;;;;;;17.92;65.95;93303.72;2055921;70;20093;-74
2022/05/17 07:42:48;;;;;;;;;;;;;;;17.91;64.39;93305.09;2068866;69;20177;-76
2022/05/17 07:45:14;;;;;;;;;;;;;;;18.40;64.54;93300.72;2068820;69;20082;-75
2022/05/17 07:47:39;;;;;;;;;;;;;;;18.90;66.31;93301.34;2055660;70;20065;-75
2022/05/17 07:50:07;;;;;;;;;;;;;;;19.12;62.48;93304.34;2068504;69;20054;-73
2022/05/17 07:52:32;;;;;;;;;;;;;;;19.20;61.75;93299.66;2055716;69;20086;-75
2022/05/17 07:54:59;;;;;;;;;;;;;;;19.49;58.82;93297.88;2055663;69;20089;-74
2022/05/17 07:57:25;;;;;;;;;;;;;;;20.17;61.10;93301.78;2055793;69;20066;-72
2022/05/17 07:59:51;;;;;;;;;;;;;;;20.57;62.03;93290.25;2065976;69;20050;-73
2022/05/17 08:02:17;;;;;;;;;;;;;;;20.89;60.68;93287.75;2055882;70;20450;-73
2022/05/17 08:04:42;;;;;;;;;;;;;;;21.22;58.53;93289.47;2055655;69;20050;-77
2022/05/17 08:10:37;;;;;;;;;;;;;;;21.81;55.40;93276.91;2055755;69;20196;-74
2022/05/17 08:13:02;;;;;;;;;;;;;;;21.98;54.63;93280.94;2055724;70;20096;-73
2022/05/17 08:15:30;;;;;;;;;;;;;;;22.44;54.09;93277.16;2055848;70;20546;-74
2022/05/17 08:21:29;;;;;;;;;;;;;;;23.16;48.36;93276.78;2053560;69;20204;-75
2022/05/17 08:23:54;;;;;;;;;;;;;;;23.03;49.87;93276.50;2055687;70;20496;-74
2022/05/17 08:29:04;;;;;;;;;;;;;;;23.89;51.67;93266.16;2055847;70;20062;-76
2022/05/17 08:31:29;;;;;;;;;;;;;;;24.00;48.83;93271.41;2055960;69;20050;-74
2022/05/17 08:33:55;;;;;;;;;;;;;;;24.68;47.64;93272.69;2068633;69;20061;-72
2022/05/17 08:36:20;;;;;;;;;;;;;;;23.83;46.07;93267.50;2055704;70;20403;-74
2022/05/17 08:38:50;;;;;;;;;;;;;;;24.28;47.31;93261.88;2055671;70;20093;-73
2022/05/17 08:41:36;;;;;;;;;;;;;;;24.69;46.20;93260.47;2055689;69;20079;-76
2022/05/17 08:44:08;;;;;;;;;;;;;;;25.13;47.15;93253.28;2055705;69;20058;-73
2022/05/17 08:46:44;;;;;;;;;;;;;;;25.25;43.38;93256.34;2055610;70;20054;-73
2022/05/17 08:49:26;;;;;;;;;;;;;;;24.97;44.87;93250.84;2055539;70;20054;-73
2022/05/17 08:52:07;;;;;;;;;;;;;;;25.20;44.24;93252.69;2055610;69;20058;-73
2022/05/17 08:54:45;;;;;;;;;;;;;;;25.25;44.35;93247.72;2055649;69;20064;-73
2022/05/17 08:57:14;;;;;;;;;;;;;;;26.08;43.64;93248.81;2055391;70;20057;-73
2022/05/17 08:59:41;;;;;;;;;;;;;;;25.96;42.83;93245.78;2055377;70;20150;-75
2022/05/17 09:02:13;;;;;;;;;;;;;;;24.96;45.06;93249.38;2068501;69;20077;-74
2022/05/17 09:04:57;;;;;;;;;;;;;;;25.23;43.07;93244.78;2068554;69;20062;-74
2022/05/17 09:07:25;;;;;;;;;;;;;;;26.15;43.62;93238.06;2055701;70;20486;-75
2022/05/17 09:10:01;;;;;;;;;;;;;;;25.49;41.66;93244.44;2068786;69;20151;-74
2022/05/17 09:12:45;;;;;;;;;;;;;;;26.60;42.67;93235.66;2055646;70;20172;-74
2022/05/17 09:15:13;;;;;;;;;;;;;;;26.12;40.56;93227.22;2055626;69;20046;-75
2022/05/17 09:17:39;;;;;;;;;;;;;;;26.50;41.21;93230.53;2055460;70;20102;-75
2022/05/17 09:20:05;;;;;;;;;;;;;;;26.82;40.39;93229.34;2068585;69;20151;-74
2022/05/17 09:22:31;;;;;;;;;;;;;;;27.03;41.13;93218.66;2055607;69;20050;-72
2022/05/17 09:24:58;;;;;;;;;;;;;;;27.12;40.84;93214.44;2055580;69;20070;-74
2022/05/17 09:27:34;;;;;;;;;;;;;;;26.90;40.30;93214.25;2065770;69;20168;-73
2022/05/17 09:30:06;;;;;;;;;;;;;;;26.65;39.66;93208.28;2055545;70;20497;-74
2022/05/17 09:32:34;;;;;;;;;;;;;;;26.45;39.09;93211.00;2068531;69;20482;-76
2022/05/17 09:35:03;;;;;;;;;;;;;;;27.51;39.08;93206.00;2055558;69;20058;-76
2022/05/17 09:37:37;;;;;;;;;;;;;;;27.63;38.51;93206.09;2055501;70;20054;-76
2022/05/17 09:40:04;;;;;;;;;;;;;;;26.96;35.76;93197.69;2068523;69;20057;-78
2022/05/17 09:42:32;;;;;;;;;;;;;;;27.90;37.52;93206.91;2055619;70;20053;-76
2022/05/17 09:45:02;;;;;;;;;;;;;;;27.53;33.63;93198.06;2055530;69;20074;-74
2022/05/17 09:47:29;;;;;;;;;;;;;;;28.58;35.58;93205.66;2055514;70;20085;-74
2022/05/17 09:52:46;;;;;;;;;;;;;;;28.07;33.25;93196.84;2055645;70;20050;-72
2022/05/17 09:55:14;;;;;;;;;;;;;;;28.50;33.17;93197.00;2068579;69;20177;-74
2022/05/17 09:57:54;;;;;;;;;;;;;;;28.88;31.10;93189.78;2055671;70;20046;-71
2022/05/17 10:00:24;;;;;;;;;;;;;;;28.36;28.90;93194.81;2055748;70;20170;-75
2022/05/17 10:02:55;;;;;;;;;;;;;;;28.65;29.78;93186.16;2068724;69;20061;-74
2022/05/17 10:05:24;;;;;;;;;;;;;;;29.60;30.98;93193.34;2055918;70;20509;-75
2022/05/17 10:07:59;;;;;;;;;;;;;;;29.00;26.85;93186.91;2055991;70;20430;-74
2022/05/17 10:10:26;;;;;;;;;;;;;;;29.86;28.17;93184.53;2055971;70;20149;-75
2022/05/17 10:12:56;;;;;;;;;;;;;;;30.24;28.82;93185.84;2055981;70;20066;-75
2022/05/17 10:15:22;;;;;;;;;;;;;;;29.84;28.11;93184.53;2069012;69;20134;-74
2022/05/17 10:17:51;;;;;;;;;;;;;;;30.21;26.86;93177.88;2055834;70;20094;-73
2022/05/17 10:20:19;;;;;;;;;;;;;;;30.13;28.18;93173.53;2055780;70;20173;-76
2022/05/17 10:22:54;;;;;;;;;;;;;;;31.45;27.23;93165.28;2056009;69;20047;-75
2022/05/17 10:25:24;;;;;;;;;;;;;;;31.15;24.42;93163.38;2055920;69;20046;-73
2022/05/17 10:27:52;;;;;;;;;;;;;;;30.98;27.38;93165.72;2055988;70;20115;-76
2022/05/17 10:30:47;;;;;;;;;;;;;;;32.40;24.95;93164.91;2055966;70;20074;-74
2022/05/17 10:33:19;;;;;;;;;;;;;;;31.00;23.91;93159.16;2056161;69;20119;-74
2022/05/17 10:35:50;;;;;;;;;;;;;;;31.02;25.79;93153.31;2068706;69;20066;-73
2022/05/17 10:38:16;;;;;;;;;;;;;;;31.46;24.65;93155.09;2055456;69;20062;-73
2022/05/17 10:44:14;;;;;;;;;;;;;;;31.48;25.29;93157.28;2055899;69;20087;-75
2022/05/17 10:46:47;;;;;;;;;;;;;;;31.69;24.87;93158.47;2055837;70;20054;-75
2022/05/17 10:49:33;;;;;;;;;;;;;;;32.53;26.09;93157.41;2055772;70;20058;-74
2022/05/17 10:52:02;;;;;;;;;;;;;;;31.35;23.78;93148.69;2055845;69;20047;-73
2022/05/17 10:54:41;;;;;;;;;;;;;;;34.07;23.93;93153.31;2055631;70;20513;-75
2022/05/17 10:57:15;;;;;;;;;;;;;;;35.15;21.34;93136.25;2055765;70;20050;-74
2022/05/17 10:59:41;;;;;;;;;;;;;;;37.70;19.62;93143.28;2055775;70;20119;-76
2022/05/17 11:02:16;;;;;;;;;;;;;;;40.01;16.63;93143.81;2068840;69;20082;-75
2022/05/17 11:04:57;;;;;;;;;;;;;;;38.18;16.74;93146.00;2055774;70;20058;-75
2022/05/17 11:07:36;;;;;;;;;;;;;;;38.93;15.34;93148.31;2066067;69;20505;-74
2022/05/17 11:10:05;;;;;;;;;;;;;;;38.57;15.29;93154.09;2056010;70;20559;-76
2022/05/17 11:12:39;;;;;;;;;;;;;;;39.78;15.61;93155.88;2055885;69;20058;-76
2022/05/17 11:15:10;;;;;;;;;;;;;;;43.59;14.52;93150.03;2056007;69;20058;-75
2022/05/17 11:17:43;;;;;;;;;;;;;;;42.77;13.65;93150.94;2055770;69;20057;-75
2022/05/17 11:20:23;;;;;;;;;;;;;;;42.76;12.65;93143.59;2055781;70;20097;-74
2022/05/17 11:22:57;;;;;;;;;;;;;;;43.06;14.10;93138.94;2055775;69;20047;-77
2022/05/17 11:25:33;;;;;;;;;;;;;;;37.24;15.65;93128.72;2068899;69;20050;-77
2022/05/17 11:28:18;;;;;;;;;;;;;;;44.15;13.58;93136.31;2055822;70;20046;-77
2022/05/17 11:30:52;;;;;;;;;;;;;;;46.04;11.92;93143.53;2055718;70;20145;-77
2022/05/17 11:33:24;;;;;;;;;;;;;;;46.30;11.23;93126.84;2055746;70;20060;-78
2022/05/17 11:36:00;;;;;;;;;;;;;;;46.11;11.05;93121.44;2055883;70;20057;-76
2022/05/17 11:38:31;;;;;;;;;;;;;;;47.17;9.59;93113.22;2055731;70;20084;-78
2022/05/17 11:40:58;;;;;;;;;;;;;;;37.81;15.01;93100.31;2068732;69;20184;-77
2022/05/17 11:43:42;;;;;;;;;;;;;;;35.79;18.03;93097.97;2068815;69;20043;-75
2022/05/17 11:46:26;;;;;;;;;;;;;;;33.27;18.64;93084.78;2055888;70;20084;-71
2022/05/17 11:48:53;;;;;;;;;;;;;;;34.30;18.52;93078.28;2068699;69;20047;-73
2022/05/17 11:51:19;;;;;;;;;;;;;;;39.93;15.90;93093.34;2055816;70;20203;-73
2022/05/17 11:53:46;;;;;;;;;;;;;;;39.38;14.99;93084.66;2055874;69;20150;-74
2022/05/17 11:56:28;;;;;;;;;;;;;;;32.94;18.86;93072.97;2055690;69;20567;-73
2022/05/17 11:58:58;;;;;;;;;;;;;;;34.77;19.50;93067.72;2055301;70;20050;-74
2022/05/17 12:01:26;;;;;;;;;;;;;;;34.50;19.54;93071.28;2055693;70;20134;-72
2022/05/17 12:03:53;;;;;;;;;;;;;;;34.02;20.52;93065.06;2055511;70;20050;-73
2022/05/17 12:06:41;;;;;;;;;;;;;;;34.44;20.79;93065.56;2055410;70;20088;-74
2022/05/17 12:09:11;;;;;;;;;;;;;;;36.39;19.06;93064.72;2055129;69;20453;-74
2022/05/17 12:11:44;;;;;;;;;;;;;;;38.13;17.95;93071.97;2055545;70;20073;-74
2022/05/17 12:14:20;;;;;;;;;;;;;;;42.59;15.82;93076.41;2055305;69;20149;-74
2022/05/17 12:16:58;;;;;;;;;;;;;;;41.59;14.72;93066.22;2055649;70;20126;-74
2022/05/17 12:19:27;;;;;;;;;;;;;;;42.96;13.25;93067.72;2055909;69;20067;-76
2022/05/17 12:21:56;;;;;;;;;;;;;;;37.26;16.95;93045.75;2055765;69;20082;-74
2022/05/17 12:24:21;;;;;;;;;;;;;;;35.72;16.35;93046.19;2055743;70;20112;-74
2022/05/17 12:26:56;;;;;;;;;;;;;;;39.94;13.99;93054.22;2055839;70;20519;-74
2022/05/17 12:32:10;;;;;;;;;;;;;;;43.62;13.33;93048.31;2068799;69;20555;-75
2022/05/17 12:34:39;;;;;;;;;;;;;;;43.40;12.12;93046.66;2055360;70;20051;-75
2022/05/17 12:37:15;;;;;;;;;;;;;;;40.80;13.91;93032.53;2055693;70;20082;-75
2022/05/17 12:45:18;;;;;;;;;;;;;;;40.08;14.37;93015.28;2055439;70;20042;-74
2022/05/17 12:47:43;;;;;;;;;;;;;;;38.71;15.05;93014.56;2055577;69;20057;-73
2022/05/17 12:50:14;;;;;;;;;;;;;;;37.91;15.38;93010.41;2055696;70;20055;-73
2022/05/17 12:52:41;;;;;;;;;;;;;;;35.54;16.60;93001.31;2055672;69;20157;-73
2022/05/17 12:55:07;;;;;;;;;;;;;;;36.69;17.26;93004.38;2055636;70;20489;-73
2022/05/17 12:57:34;;;;;;;;;;;;;;;37.12;16.43;93003.66;2055611;70;20150;-72
2022/05/17 13:00:10;;;;;;;;;;;;;;;36.68;17.75;92999.31;2068696;69;20049;-74
2022/05/17 13:02:44;;;;;;;;;;;;;;;34.80;17.66;92985.03;2068277;69;20050;-73
2022/05/17 13:05:29;;;;;;;;;;;;;;;33.75;18.22;92988.97;2055680;70;20053;-75
2022/05/17 13:08:14;;;;;;;;;;;;;;;34.68;19.00;92975.84;2055620;70;20103;-72
2022/05/17 13:10:41;;;;;;;;;;;;;;;33.10;19.90;92972.81;2055478;69;20058;-72
2022/05/17 13:13:18;;;;;;;;;;;;;;;32.85;21.29;92979.09;2055489;70;20108;-73
2022/05/17 13:15:58;;;;;;;;;;;;;;;32.45;22.00;92985.66;2055526;70;20482;-73
2022/05/17 13:18:28;;;;;;;;;;;;;;;33.18;20.57;92977.78;2067728;69;20054;-73
2022/05/17 13:20:53;;;;;;;;;;;;;;;31.48;20.83;92971.81;2055648;70;20065;-73
2022/05/17 13:23:21;;;;;;;;;;;;;;;31.70;22.13;92973.66;2055561;69;20417;-74
2022/05/17 13:25:48;;;;;;;;;;;;;;;31.53;21.48;92969.56;2055592;69;20069;-73
2022/05/17 13:28:23;;;;;;;;;;;;;;;31.55;23.71;92969.53;2055579;70;20149;-73
2022/05/17 13:30:49;;;;;;;;;;;;;;;30.92;23.35;92961.59;2065042;69;20486;-74
2022/05/17 13:33:28;;;;;;;;;;;;;;;30.10;23.12;92960.19;2054636;70;20058;-75
2022/05/17 13:36:08;;;;;;;;;;;;;;;29.55;23.74;92962.75;2055422;70;20057;-74
2022/05/17 13:38:35;;;;;;;;;;;;;;;30.35;23.99;92960.69;2055183;70;20054;-75
2022/05/17 13:41:30;;;;;;;;;;;;;;;29.84;24.51;92955.31;2067727;69;20640;-76
2022/05/17 13:44:00;;;;;;;;;;;;;;;29.90;23.82;92948.72;2055473;70;20053;-72
2022/05/17 13:46:29;;;;;;;;;;;;;;;29.37;25.18;92944.00;2055541;70;20509;-75
2022/05/17 13:48:58;;;;;;;;;;;;;;;29.92;23.24;92945.06;2055489;70;20145;-73